sensor_id;sensor_type;location;lat;lon;timestamp;P1;durP1;ratioP1;P2;durP2;ratioP2
19251;SDS011;9760;50.944;5.304;2023-05-10T00:01:14;29.10;;;13.83;;
19251;SDS011;9760;50.944;5.304;2023-05-10T00:03:40;28.90;;;13.37;;
19251;SDS011;9760;50.944;5.304;2023-05-10T00:06:06;27.47;;;14.17;;
19251;SDS011;9760;50.944;5.304;2023-05-10T00:08:31;21.07;;;12.27;;
19251;SDS011;9760;50.944;5.304;2023-05-10T00:10:57;27.07;;;13.03;;
19251;SDS011;9760;50.944;5.304;2023-05-10T00:13:23;22.43;;;12.90;;
19251;SDS011;9760;50.944;5.304;2023-05-10T00:15:48;23.60;;;12.40;;
19251;SDS011;9760;50.944;5.304;2023-05-10T00:18:14;21.60;;;12.30;;
19251;SDS011;9760;50.944;5.304;2023-05-10T00:20:40;24.83;;;13.07;;
19251;SDS011;9760;50.944;5.304;2023-05-10T00:23:05;22.83;;;12.50;;
19251;SDS011;9760;50.944;5.304;2023-05-10T00:25:31;19.67;;;11.80;;
19251;SDS011;9760;50.944;5.304;2023-05-10T00:27:57;26.67;;;12.40;;
19251;SDS011;9760;50.944;5.304;2023-05-10T00:30:22;20.43;;;11.53;;
19251;SDS011;9760;50.944;5.304;2023-05-10T00:32:48;24.47;;;12.17;;
19251;SDS011;9760;50.944;5.304;2023-05-10T00:35:15;24.47;;;12.37;;
19251;SDS011;9760;50.944;5.304;2023-05-10T00:37:40;23.23;;;12.40;;
19251;SDS011;9760;50.944;5.304;2023-05-10T00:40:06;24.20;;;12.33;;
19251;SDS011;9760;50.944;5.304;2023-05-10T00:42:32;21.83;;;11.50;;
19251;SDS011;9760;50.944;5.304;2023-05-10T00:44:58;24.17;;;11.83;;
19251;SDS011;9760;50.944;5.304;2023-05-10T00:47:24;23.33;;;12.43;;
19251;SDS011;9760;50.944;5.304;2023-05-10T00:49:49;24.17;;;12.87;;
19251;SDS011;9760;50.944;5.304;2023-05-10T00:52:15;22.30;;;12.13;;
19251;SDS011;9760;50.944;5.304;2023-05-10T00:54:41;22.20;;;11.27;;
19251;SDS011;9760;50.944;5.304;2023-05-10T00:57:07;29.47;;;11.77;;
19251;SDS011;9760;50.944;5.304;2023-05-10T00:59:33;20.43;;;11.57;;
19251;SDS011;9760;50.944;5.304;2023-05-10T01:01:59;31.40;;;12.70;;
19251;SDS011;9760;50.944;5.304;2023-05-10T01:04:25;22.30;;;12.17;;
19251;SDS011;9760;50.944;5.304;2023-05-10T01:06:51;23.60;;;12.77;;
19251;SDS011;9760;50.944;5.304;2023-05-10T01:09:19;20.73;;;12.27;;
19251;SDS011;9760;50.944;5.304;2023-05-10T01:11:46;21.93;;;11.33;;
19251;SDS011;9760;50.944;5.304;2023-05-10T01:14:13;22.83;;;12.53;;
19251;SDS011;9760;50.944;5.304;2023-05-10T01:16:40;19.77;;;10.87;;
19251;SDS011;9760;50.944;5.304;2023-05-10T01:21:53;23.87;;;11.90;;
19251;SDS011;9760;50.944;5.304;2023-05-10T01:27:25;22.60;;;11.63;;
19251;SDS011;9760;50.944;5.304;2023-05-10T01:38:22;25.93;;;12.10;;
19251;SDS011;9760;50.944;5.304;2023-05-10T01:41:07;24.40;;;11.30;;
19251;SDS011;9760;50.944;5.304;2023-05-10T01:47:07;26.23;;;11.60;;
19251;SDS011;9760;50.944;5.304;2023-05-10T01:49:47;23.53;;;11.70;;
19251;SDS011;9760;50.944;5.304;2023-05-10T01:52:16;23.97;;;11.83;;
19251;SDS011;9760;50.944;5.304;2023-05-10T01:54:50;25.00;;;11.33;;
19251;SDS011;9760;50.944;5.304;2023-05-10T01:57:21;24.77;;;11.87;;
19251;SDS011;9760;50.944;5.304;2023-05-10T01:59:50;26.57;;;12.60;;
19251;SDS011;9760;50.944;5.304;2023-05-10T02:02:17;26.30;;;12.90;;
19251;SDS011;9760;50.944;5.304;2023-05-10T02:04:46;28.97;;;12.03;;
19251;SDS011;9760;50.944;5.304;2023-05-10T02:07:14;25.47;;;12.30;;
19251;SDS011;9760;50.944;5.304;2023-05-10T02:09:42;29.33;;;12.30;;
19251;SDS011;9760;50.944;5.304;2023-05-10T02:12:12;30.17;;;13.40;;
19251;SDS011;9760;50.944;5.304;2023-05-10T02:14:39;26.87;;;11.80;;
19251;SDS011;9760;50.944;5.304;2023-05-10T02:17:07;27.60;;;12.70;;
19251;SDS011;9760;50.944;5.304;2023-05-10T02:19:35;29.77;;;12.33;;
19251;SDS011;9760;50.944;5.304;2023-05-10T02:22:04;25.20;;;11.57;;
19251;SDS011;9760;50.944;5.304;2023-05-10T02:24:32;26.50;;;11.70;;
19251;SDS011;9760;50.944;5.304;2023-05-10T02:26:58;28.30;;;13.47;;
19251;SDS011;9760;50.944;5.304;2023-05-10T02:29:26;33.27;;;13.07;;
19251;SDS011;9760;50.944;5.304;2023-05-10T02:31:54;26.60;;;12.17;;
19251;SDS011;9760;50.944;5.304;2023-05-10T02:34:25;27.33;;;13.13;;
19251;SDS011;9760;50.944;5.304;2023-05-10T02:36:52;26.97;;;11.87;;
19251;SDS011;9760;50.944;5.304;2023-05-10T02:39:18;31.67;;;13.13;;
19251;SDS011;9760;50.944;5.304;2023-05-10T02:41:46;29.23;;;12.63;;
19251;SDS011;9760;50.944;5.304;2023-05-10T02:44:14;25.63;;;12.40;;
19251;SDS011;9760;50.944;5.304;2023-05-10T02:46:42;25.73;;;12.00;;
19251;SDS011;9760;50.944;5.304;2023-05-10T02:49:08;27.83;;;11.87;;
19251;SDS011;9760;50.944;5.304;2023-05-10T02:51:35;27.23;;;12.43;;
19251;SDS011;9760;50.944;5.304;2023-05-10T02:54:27;31.00;;;12.30;;
19251;SDS011;9760;50.944;5.304;2023-05-10T02:56:56;25.20;;;11.70;;
19251;SDS011;9760;50.944;5.304;2023-05-10T02:59:24;27.50;;;11.93;;
19251;SDS011;9760;50.944;5.304;2023-05-10T03:01:50;24.37;;;11.77;;
19251;SDS011;9760;50.944;5.304;2023-05-10T03:04:15;38.50;;;12.83;;
19251;SDS011;9760;50.944;5.304;2023-05-10T03:06:41;27.50;;;11.77;;
19251;SDS011;9760;50.944;5.304;2023-05-10T03:09:07;27.07;;;12.17;;
19251;SDS011;9760;50.944;5.304;2023-05-10T03:20:43;23.30;;;11.27;;
19251;SDS011;9760;50.944;5.304;2023-05-10T03:25:45;30.70;;;12.27;;
19251;SDS011;9760;50.944;5.304;2023-05-10T03:28:13;31.70;;;12.53;;
19251;SDS011;9760;50.944;5.304;2023-05-10T03:30:40;32.90;;;14.23;;
19251;SDS011;9760;50.944;5.304;2023-05-10T03:33:07;39.27;;;13.57;;
19251;SDS011;9760;50.944;5.304;2023-05-10T03:35:33;33.40;;;12.60;;
19251;SDS011;9760;50.944;5.304;2023-05-10T03:37:59;31.23;;;12.47;;
19251;SDS011;9760;50.944;5.304;2023-05-10T03:40:26;36.70;;;13.07;;
19251;SDS011;9760;50.944;5.304;2023-05-10T03:42:54;30.00;;;12.87;;
19251;SDS011;9760;50.944;5.304;2023-05-10T03:45:20;29.43;;;12.47;;
19251;SDS011;9760;50.944;5.304;2023-05-10T03:47:45;32.00;;;13.50;;
19251;SDS011;9760;50.944;5.304;2023-05-10T03:50:11;32.83;;;13.17;;
19251;SDS011;9760;50.944;5.304;2023-05-10T03:52:37;31.33;;;14.37;;
19251;SDS011;9760;50.944;5.304;2023-05-10T03:55:04;29.33;;;13.13;;
19251;SDS011;9760;50.944;5.304;2023-05-10T03:57:30;26.43;;;13.03;;
19251;SDS011;9760;50.944;5.304;2023-05-10T03:59:56;26.27;;;13.30;;
19251;SDS011;9760;50.944;5.304;2023-05-10T04:02:21;35.13;;;14.43;;
19251;SDS011;9760;50.944;5.304;2023-05-10T04:04:47;33.60;;;13.73;;
19251;SDS011;9760;50.944;5.304;2023-05-10T04:07:13;35.67;;;14.20;;
19251;SDS011;9760;50.944;5.304;2023-05-10T04:09:39;33.63;;;15.03;;
19251;SDS011;9760;50.944;5.304;2023-05-10T04:12:05;35.40;;;15.23;;
19251;SDS011;9760;50.944;5.304;2023-05-10T04:14:31;34.50;;;16.00;;
19251;SDS011;9760;50.944;5.304;2023-05-10T04:16:56;35.40;;;16.57;;
19251;SDS011;9760;50.944;5.304;2023-05-10T04:19:22;35.80;;;16.27;;
19251;SDS011;9760;50.944;5.304;2023-05-10T04:21:48;42.63;;;18.13;;
19251;SDS011;9760;50.944;5.304;2023-05-10T04:24:14;40.87;;;17.67;;
19251;SDS011;9760;50.944;5.304;2023-05-10T04:26:39;42.70;;;18.33;;
19251;SDS011;9760;50.944;5.304;2023-05-10T04:29:05;48.20;;;20.43;;
19251;SDS011;9760;50.944;5.304;2023-05-10T04:31:31;39.90;;;20.73;;
19251;SDS011;9760;50.944;5.304;2023-05-10T04:33:57;47.90;;;21.30;;
19251;SDS011;9760;50.944;5.304;2023-05-10T04:36:23;45.30;;;20.93;;
19251;SDS011;9760;50.944;5.304;2023-05-10T04:38:48;50.53;;;21.87;;
19251;SDS011;9760;50.944;5.304;2023-05-10T04:41:14;47.10;;;23.63;;
19251;SDS011;9760;50.944;5.304;2023-05-10T04:43:40;47.30;;;22.57;;
19251;SDS011;9760;50.944;5.304;2023-05-10T04:46:05;53.83;;;25.77;;
19251;SDS011;9760;50.944;5.304;2023-05-10T04:48:32;54.40;;;25.93;;
19251;SDS011;9760;50.944;5.304;2023-05-10T04:50:58;51.63;;;29.00;;
19251;SDS011;9760;50.944;5.304;2023-05-10T04:53:24;61.17;;;36.90;;
19251;SDS011;9760;50.944;5.304;2023-05-10T04:55:50;60.73;;;38.93;;
19251;SDS011;9760;50.944;5.304;2023-05-10T04:58:15;60.57;;;40.90;;
19251;SDS011;9760;50.944;5.304;2023-05-10T05:00:41;57.13;;;37.80;;
19251;SDS011;9760;50.944;5.304;2023-05-10T05:03:07;60.77;;;40.33;;
19251;SDS011;9760;50.944;5.304;2023-05-10T05:05:33;58.70;;;39.43;;
19251;SDS011;9760;50.944;5.304;2023-05-10T05:07:58;60.73;;;38.20;;
19251;SDS011;9760;50.944;5.304;2023-05-10T05:10:24;57.77;;;34.93;;
19251;SDS011;9760;50.944;5.304;2023-05-10T05:12:50;61.40;;;34.07;;
19251;SDS011;9760;50.944;5.304;2023-05-10T05:15:15;60.63;;;32.53;;
19251;SDS011;9760;50.944;5.304;2023-05-10T05:17:42;60.60;;;31.60;;
19251;SDS011;9760;50.944;5.304;2023-05-10T05:20:08;63.83;;;31.93;;
19251;SDS011;9760;50.944;5.304;2023-05-10T05:22:36;64.47;;;30.17;;
19251;SDS011;9760;50.944;5.304;2023-05-10T05:25:02;59.17;;;30.93;;
19251;SDS011;9760;50.944;5.304;2023-05-10T05:27:28;62.40;;;29.63;;
19251;SDS011;9760;50.944;5.304;2023-05-10T05:29:55;63.43;;;28.83;;
19251;SDS011;9760;50.944;5.304;2023-05-10T05:32:21;63.70;;;28.90;;
19251;SDS011;9760;50.944;5.304;2023-05-10T05:34:48;70.83;;;28.80;;
19251;SDS011;9760;50.944;5.304;2023-05-10T05:37:19;73.63;;;29.80;;
19251;SDS011;9760;50.944;5.304;2023-05-10T05:39:46;83.13;;;31.07;;
19251;SDS011;9760;50.944;5.304;2023-05-10T05:42:12;77.93;;;30.00;;
19251;SDS011;9760;50.944;5.304;2023-05-10T05:44:38;75.67;;;29.57;;
19251;SDS011;9760;50.944;5.304;2023-05-10T05:47:04;77.37;;;30.50;;
19251;SDS011;9760;50.944;5.304;2023-05-10T05:49:31;89.73;;;32.23;;
19251;SDS011;9760;50.944;5.304;2023-05-10T05:52:00;80.80;;;28.87;;
19251;SDS011;9760;50.944;5.304;2023-05-10T05:54:27;87.77;;;29.03;;
19251;SDS011;9760;50.944;5.304;2023-05-10T05:56:53;74.43;;;27.07;;
19251;SDS011;9760;50.944;5.304;2023-05-10T05:59:20;76.77;;;28.60;;
19251;SDS011;9760;50.944;5.304;2023-05-10T06:01:46;78.37;;;28.20;;
19251;SDS011;9760;50.944;5.304;2023-05-10T06:04:12;87.53;;;29.97;;
19251;SDS011;9760;50.944;5.304;2023-05-10T06:06:38;82.63;;;29.93;;
19251;SDS011;9760;50.944;5.304;2023-05-10T06:09:03;88.30;;;29.47;;
19251;SDS011;9760;50.944;5.304;2023-05-10T06:11:29;79.40;;;29.00;;
19251;SDS011;9760;50.944;5.304;2023-05-10T06:13:57;97.83;;;29.37;;
19251;SDS011;9760;50.944;5.304;2023-05-10T06:16:23;87.70;;;29.90;;
19251;SDS011;9760;50.944;5.304;2023-05-10T06:18:49;87.70;;;30.13;;
19251;SDS011;9760;50.944;5.304;2023-05-10T06:21:14;83.97;;;30.23;;
19251;SDS011;9760;50.944;5.304;2023-05-10T06:23:41;95.10;;;30.63;;
19251;SDS011;9760;50.944;5.304;2023-05-10T06:26:07;94.33;;;31.20;;
19251;SDS011;9760;50.944;5.304;2023-05-10T06:28:32;92.20;;;31.07;;
19251;SDS011;9760;50.944;5.304;2023-05-10T06:30:58;96.40;;;31.70;;
19251;SDS011;9760;50.944;5.304;2023-05-10T06:33:24;87.93;;;30.47;;
19251;SDS011;9760;50.944;5.304;2023-05-10T06:35:51;94.27;;;30.37;;
19251;SDS011;9760;50.944;5.304;2023-05-10T06:38:16;86.37;;;29.47;;
19251;SDS011;9760;50.944;5.304;2023-05-10T06:40:42;92.47;;;31.70;;
19251;SDS011;9760;50.944;5.304;2023-05-10T06:43:08;84.97;;;28.33;;
19251;SDS011;9760;50.944;5.304;2023-05-10T06:45:35;95.53;;;30.60;;
19251;SDS011;9760;50.944;5.304;2023-05-10T06:48:00;101.73;;;29.93;;
19251;SDS011;9760;50.944;5.304;2023-05-10T06:50:26;93.10;;;31.97;;
19251;SDS011;9760;50.944;5.304;2023-05-10T06:52:52;101.67;;;31.00;;
19251;SDS011;9760;50.944;5.304;2023-05-10T06:55:18;99.87;;;32.13;;
19251;SDS011;9760;50.944;5.304;2023-05-10T06:57:43;99.57;;;32.07;;
19251;SDS011;9760;50.944;5.304;2023-05-10T07:00:09;95.53;;;32.93;;
19251;SDS011;9760;50.944;5.304;2023-05-10T07:02:35;101.83;;;31.40;;
19251;SDS011;9760;50.944;5.304;2023-05-10T07:05:01;104.57;;;32.33;;
19251;SDS011;9760;50.944;5.304;2023-05-10T07:07:27;100.77;;;30.43;;
19251;SDS011;9760;50.944;5.304;2023-05-10T07:09:53;85.53;;;30.07;;
19251;SDS011;9760;50.944;5.304;2023-05-10T07:12:18;105.13;;;31.60;;
19251;SDS011;9760;50.944;5.304;2023-05-10T07:14:44;98.77;;;31.20;;
19251;SDS011;9760;50.944;5.304;2023-05-10T07:17:10;93.27;;;30.63;;
19251;SDS011;9760;50.944;5.304;2023-05-10T07:19:36;91.47;;;29.47;;
19251;SDS011;9760;50.944;5.304;2023-05-10T07:22:02;92.50;;;28.83;;
19251;SDS011;9760;50.944;5.304;2023-05-10T07:24:27;90.40;;;28.80;;
19251;SDS011;9760;50.944;5.304;2023-05-10T07:26:53;100.97;;;30.77;;
19251;SDS011;9760;50.944;5.304;2023-05-10T07:29:19;101.13;;;30.10;;
19251;SDS011;9760;50.944;5.304;2023-05-10T07:31:44;83.27;;;28.00;;
19251;SDS011;9760;50.944;5.304;2023-05-10T07:34:10;85.43;;;27.40;;
19251;SDS011;9760;50.944;5.304;2023-05-10T07:36:35;95.93;;;28.90;;
19251;SDS011;9760;50.944;5.304;2023-05-10T07:39:01;87.83;;;27.77;;
19251;SDS011;9760;50.944;5.304;2023-05-10T07:41:28;87.67;;;27.77;;
19251;SDS011;9760;50.944;5.304;2023-05-10T07:43:53;80.90;;;26.20;;
19251;SDS011;9760;50.944;5.304;2023-05-10T07:46:22;85.03;;;27.73;;
19251;SDS011;9760;50.944;5.304;2023-05-10T07:48:49;86.47;;;29.10;;
19251;SDS011;9760;50.944;5.304;2023-05-10T07:51:15;68.43;;;25.67;;
19251;SDS011;9760;50.944;5.304;2023-05-10T07:53:40;67.17;;;24.07;;
19251;SDS011;9760;50.944;5.304;2023-05-10T07:56:25;59.10;;;23.50;;
19251;SDS011;9760;50.944;5.304;2023-05-10T07:58:54;62.73;;;24.00;;
19251;SDS011;9760;50.944;5.304;2023-05-10T08:01:21;65.00;;;24.60;;
19251;SDS011;9760;50.944;5.304;2023-05-10T08:03:47;57.03;;;22.87;;
19251;SDS011;9760;50.944;5.304;2023-05-10T08:06:14;58.97;;;22.17;;
19251;SDS011;9760;50.944;5.304;2023-05-10T08:08:40;53.60;;;21.73;;
19251;SDS011;9760;50.944;5.304;2023-05-10T08:11:06;51.43;;;20.77;;
19251;SDS011;9760;50.944;5.304;2023-05-10T08:13:32;31.97;;;13.77;;
19251;SDS011;9760;50.944;5.304;2023-05-10T08:15:58;31.10;;;11.97;;
19251;SDS011;9760;50.944;5.304;2023-05-10T08:18:23;20.33;;;8.43;;
19251;SDS011;9760;50.944;5.304;2023-05-10T08:20:49;16.37;;;6.97;;
19251;SDS011;9760;50.944;5.304;2023-05-10T08:23:15;11.83;;;5.33;;
19251;SDS011;9760;50.944;5.304;2023-05-10T08:25:40;7.87;;;4.30;;
19251;SDS011;9760;50.944;5.304;2023-05-10T08:28:06;7.53;;;4.10;;
19251;SDS011;9760;50.944;5.304;2023-05-10T08:30:32;11.03;;;3.40;;
19251;SDS011;9760;50.944;5.304;2023-05-10T08:32:58;7.97;;;3.77;;
19251;SDS011;9760;50.944;5.304;2023-05-10T08:35:23;9.23;;;4.07;;
19251;SDS011;9760;50.944;5.304;2023-05-10T08:37:50;9.53;;;4.00;;
19251;SDS011;9760;50.944;5.304;2023-05-10T08:40:16;7.57;;;4.10;;
19251;SDS011;9760;50.944;5.304;2023-05-10T08:42:55;7.03;;;3.93;;
19251;SDS011;9760;50.944;5.304;2023-05-10T08:45:25;7.20;;;4.47;;
19251;SDS011;9760;50.944;5.304;2023-05-10T08:47:56;11.60;;;4.60;;
19251;SDS011;9760;50.944;5.304;2023-05-10T08:50:23;8.17;;;4.60;;
19251;SDS011;9760;50.944;5.304;2023-05-10T08:52:50;7.63;;;4.60;;
19251;SDS011;9760;50.944;5.304;2023-05-10T08:55:20;11.50;;;4.90;;
19251;SDS011;9760;50.944;5.304;2023-05-10T08:57:48;11.37;;;5.10;;
19251;SDS011;9760;50.944;5.304;2023-05-10T09:00:14;7.67;;;4.60;;
19251;SDS011;9760;50.944;5.304;2023-05-10T09:02:40;9.83;;;5.37;;
19251;SDS011;9760;50.944;5.304;2023-05-10T09:05:08;12.07;;;5.40;;
19251;SDS011;9760;50.944;5.304;2023-05-10T09:07:35;11.53;;;6.07;;
19251;SDS011;9760;50.944;5.304;2023-05-10T09:10:01;13.87;;;5.93;;
19251;SDS011;9760;50.944;5.304;2023-05-10T09:12:29;9.77;;;5.60;;
19251;SDS011;9760;50.944;5.304;2023-05-10T09:14:54;11.70;;;5.37;;
19251;SDS011;9760;50.944;5.304;2023-05-10T09:17:23;10.50;;;5.40;;
19251;SDS011;9760;50.944;5.304;2023-05-10T09:19:56;13.63;;;5.90;;
19251;SDS011;9760;50.944;5.304;2023-05-10T09:22:23;11.10;;;5.77;;
19251;SDS011;9760;50.944;5.304;2023-05-10T09:25:02;11.93;;;6.43;;
19251;SDS011;9760;50.944;5.304;2023-05-10T09:27:38;13.80;;;6.43;;
19251;SDS011;9760;50.944;5.304;2023-05-10T09:30:05;10.57;;;5.80;;
19251;SDS011;9760;50.944;5.304;2023-05-10T09:32:45;10.37;;;6.13;;
19251;SDS011;9760;50.944;5.304;2023-05-10T09:35:16;13.23;;;6.20;;
19251;SDS011;9760;50.944;5.304;2023-05-10T09:37:44;13.73;;;6.30;;
19251;SDS011;9760;50.944;5.304;2023-05-10T09:40:21;12.63;;;6.43;;
19251;SDS011;9760;50.944;5.304;2023-05-10T09:45:21;14.87;;;8.10;;
19251;SDS011;9760;50.944;5.304;2023-05-10T09:47:48;18.70;;;7.40;;
19251;SDS011;9760;50.944;5.304;2023-05-10T09:50:14;15.37;;;7.63;;
19251;SDS011;9760;50.944;5.304;2023-05-10T09:52:50;17.20;;;8.17;;
19251;SDS011;9760;50.944;5.304;2023-05-10T09:55:23;14.43;;;7.90;;
19251;SDS011;9760;50.944;5.304;2023-05-10T09:57:57;18.03;;;8.00;;
19251;SDS011;9760;50.944;5.304;2023-05-10T10:00:26;14.60;;;7.83;;
19251;SDS011;9760;50.944;5.304;2023-05-10T10:02:56;18.13;;;8.13;;
19251;SDS011;9760;50.944;5.304;2023-05-10T10:05:32;16.27;;;8.17;;
19251;SDS011;9760;50.944;5.304;2023-05-10T10:08:02;16.50;;;8.83;;
19251;SDS011;9760;50.944;5.304;2023-05-10T10:10:28;15.60;;;8.57;;
19251;SDS011;9760;50.944;5.304;2023-05-10T10:12:55;20.43;;;8.70;;
19251;SDS011;9760;50.944;5.304;2023-05-10T10:15:21;19.77;;;9.73;;
19251;SDS011;9760;50.944;5.304;2023-05-10T10:17:48;21.33;;;9.37;;
19251;SDS011;9760;50.944;5.304;2023-05-10T10:20:15;20.10;;;9.97;;
19251;SDS011;9760;50.944;5.304;2023-05-10T10:22:41;19.03;;;9.90;;
19251;SDS011;9760;50.944;5.304;2023-05-10T10:25:17;20.03;;;9.67;;
19251;SDS011;9760;50.944;5.304;2023-05-10T10:30:25;21.10;;;10.13;;
19251;SDS011;9760;50.944;5.304;2023-05-10T10:35:43;22.47;;;9.87;;
19251;SDS011;9760;50.944;5.304;2023-05-10T10:38:11;20.83;;;10.87;;
19251;SDS011;9760;50.944;5.304;2023-05-10T10:40:37;22.33;;;9.67;;
19251;SDS011;9760;50.944;5.304;2023-05-10T10:46:17;19.93;;;8.70;;
19251;SDS011;9760;50.944;5.304;2023-05-10T10:48:49;22.30;;;8.80;;
19251;SDS011;9760;50.944;5.304;2023-05-10T10:51:35;18.50;;;8.37;;
19251;SDS011;9760;50.944;5.304;2023-05-10T10:54:09;18.57;;;8.80;;
19251;SDS011;9760;50.944;5.304;2023-05-10T10:56:35;14.73;;;8.13;;
19251;SDS011;9760;50.944;5.304;2023-05-10T10:59:01;18.57;;;8.97;;
19251;SDS011;9760;50.944;5.304;2023-05-10T11:01:27;18.27;;;8.87;;
19251;SDS011;9760;50.944;5.304;2023-05-10T11:06:32;15.67;;;7.67;;
19251;SDS011;9760;50.944;5.304;2023-05-10T11:09:07;14.17;;;7.83;;
19251;SDS011;9760;50.944;5.304;2023-05-10T11:11:34;14.67;;;7.33;;
19251;SDS011;9760;50.944;5.304;2023-05-10T11:14:04;15.20;;;7.23;;
19251;SDS011;9760;50.944;5.304;2023-05-10T11:16:44;13.00;;;6.73;;
19251;SDS011;9760;50.944;5.304;2023-05-10T11:19:10;14.03;;;7.27;;
19251;SDS011;9760;50.944;5.304;2023-05-10T11:21:46;14.17;;;6.63;;
19251;SDS011;9760;50.944;5.304;2023-05-10T11:24:17;12.43;;;6.07;;
19251;SDS011;9760;50.944;5.304;2023-05-10T11:26:44;12.23;;;6.57;;
19251;SDS011;9760;50.944;5.304;2023-05-10T11:29:12;9.70;;;5.70;;
19251;SDS011;9760;50.944;5.304;2023-05-10T11:31:45;11.97;;;5.77;;
19251;SDS011;9760;50.944;5.304;2023-05-10T11:34:11;11.53;;;5.70;;
19251;SDS011;9760;50.944;5.304;2023-05-10T11:36:51;9.93;;;5.90;;
19251;SDS011;9760;50.944;5.304;2023-05-10T11:39:18;9.57;;;5.57;;
19251;SDS011;9760;50.944;5.304;2023-05-10T11:41:46;9.17;;;5.13;;
19251;SDS011;9760;50.944;5.304;2023-05-10T11:44:14;10.43;;;5.13;;
19251;SDS011;9760;50.944;5.304;2023-05-10T11:46:39;8.67;;;5.10;;
19251;SDS011;9760;50.944;5.304;2023-05-10T11:49:06;10.40;;;5.13;;
19251;SDS011;9760;50.944;5.304;2023-05-10T11:51:33;10.67;;;5.27;;
19251;SDS011;9760;50.944;5.304;2023-05-10T11:54:00;8.30;;;4.50;;
19251;SDS011;9760;50.944;5.304;2023-05-10T11:56:29;8.27;;;4.43;;
19251;SDS011;9760;50.944;5.304;2023-05-10T11:58:57;7.90;;;4.50;;
19251;SDS011;9760;50.944;5.304;2023-05-10T12:01:24;9.30;;;4.90;;
19251;SDS011;9760;50.944;5.304;2023-05-10T12:03:51;7.37;;;4.90;;
19251;SDS011;9760;50.944;5.304;2023-05-10T12:06:19;7.53;;;4.00;;
19251;SDS011;9760;50.944;5.304;2023-05-10T12:08:45;7.57;;;3.80;;
19251;SDS011;9760;50.944;5.304;2023-05-10T12:11:13;7.60;;;4.23;;
19251;SDS011;9760;50.944;5.304;2023-05-10T12:13:40;6.93;;;4.30;;
19251;SDS011;9760;50.944;5.304;2023-05-10T12:18:42;9.10;;;3.97;;
19251;SDS011;9760;50.944;5.304;2023-05-10T12:21:11;7.57;;;3.83;;
19251;SDS011;9760;50.944;5.304;2023-05-10T12:23:39;6.10;;;3.60;;
19251;SDS011;9760;50.944;5.304;2023-05-10T12:26:05;5.53;;;3.70;;
19251;SDS011;9760;50.944;5.304;2023-05-10T12:28:33;7.00;;;3.93;;
19251;SDS011;9760;50.944;5.304;2023-05-10T12:30:59;8.33;;;4.10;;
19251;SDS011;9760;50.944;5.304;2023-05-10T12:33:26;7.10;;;4.50;;
19251;SDS011;9760;50.944;5.304;2023-05-10T12:35:52;6.43;;;3.60;;
19251;SDS011;9760;50.944;5.304;2023-05-10T12:38:26;7.93;;;4.37;;
19251;SDS011;9760;50.944;5.304;2023-05-10T12:40:58;6.00;;;3.67;;
19251;SDS011;9760;50.944;5.304;2023-05-10T12:43:27;7.47;;;3.63;;
19251;SDS011;9760;50.944;5.304;2023-05-10T12:45:53;6.80;;;4.03;;
19251;SDS011;9760;50.944;5.304;2023-05-10T12:48:19;7.50;;;3.80;;
19251;SDS011;9760;50.944;5.304;2023-05-10T12:50:45;6.73;;;3.57;;
19251;SDS011;9760;50.944;5.304;2023-05-10T12:53:12;5.30;;;3.87;;
19251;SDS011;9760;50.944;5.304;2023-05-10T12:55:40;5.97;;;3.60;;
19251;SDS011;9760;50.944;5.304;2023-05-10T12:58:09;4.80;;;3.40;;
19251;SDS011;9760;50.944;5.304;2023-05-10T13:00:35;4.40;;;2.73;;
19251;SDS011;9760;50.944;5.304;2023-05-10T13:03:03;5.97;;;2.80;;
19251;SDS011;9760;50.944;5.304;2023-05-10T13:05:31;2.93;;;2.07;;
19251;SDS011;9760;50.944;5.304;2023-05-10T13:07:57;4.10;;;2.23;;
19251;SDS011;9760;50.944;5.304;2023-05-10T13:10:23;4.03;;;2.30;;
19251;SDS011;9760;50.944;5.304;2023-05-10T13:12:48;3.70;;;2.17;;
19251;SDS011;9760;50.944;5.304;2023-05-10T13:15:14;3.00;;;1.70;;
19251;SDS011;9760;50.944;5.304;2023-05-10T13:17:40;3.53;;;1.50;;
19251;SDS011;9760;50.944;5.304;2023-05-10T13:20:07;2.30;;;1.80;;
19251;SDS011;9760;50.944;5.304;2023-05-10T13:22:34;4.17;;;1.50;;
19251;SDS011;9760;50.944;5.304;2023-05-10T13:25:00;2.63;;;1.93;;
19251;SDS011;9760;50.944;5.304;2023-05-10T13:27:26;2.20;;;1.77;;
19251;SDS011;9760;50.944;5.304;2023-05-10T13:29:51;2.97;;;1.87;;
19251;SDS011;9760;50.944;5.304;2023-05-10T13:32:17;4.43;;;2.20;;
19251;SDS011;9760;50.944;5.304;2023-05-10T13:34:43;5.33;;;2.37;;
19251;SDS011;9760;50.944;5.304;2023-05-10T13:37:09;4.23;;;2.57;;
19251;SDS011;9760;50.944;5.304;2023-05-10T13:39:34;4.13;;;2.43;;
19251;SDS011;9760;50.944;5.304;2023-05-10T13:42:02;2.00;;;1.57;;
19251;SDS011;9760;50.944;5.304;2023-05-10T13:44:28;2.60;;;1.30;;
19251;SDS011;9760;50.944;5.304;2023-05-10T13:46:54;1.43;;;1.33;;
19251;SDS011;9760;50.944;5.304;2023-05-10T13:49:21;2.53;;;1.33;;
19251;SDS011;9760;50.944;5.304;2023-05-10T13:51:47;1.90;;;1.40;;
19251;SDS011;9760;50.944;5.304;2023-05-10T13:54:13;2.43;;;1.60;;
19251;SDS011;9760;50.944;5.304;2023-05-10T13:56:39;2.63;;;1.57;;
19251;SDS011;9760;50.944;5.304;2023-05-10T13:59:06;2.30;;;1.37;;
19251;SDS011;9760;50.944;5.304;2023-05-10T14:01:32;3.13;;;1.70;;
19251;SDS011;9760;50.944;5.304;2023-05-10T14:03:58;3.17;;;2.07;;
19251;SDS011;9760;50.944;5.304;2023-05-10T14:06:24;2.57;;;1.80;;
19251;SDS011;9760;50.944;5.304;2023-05-10T14:08:51;3.10;;;1.80;;
19251;SDS011;9760;50.944;5.304;2023-05-10T14:11:17;2.37;;;1.83;;
19251;SDS011;9760;50.944;5.304;2023-05-10T14:13:42;2.50;;;1.80;;
19251;SDS011;9760;50.944;5.304;2023-05-10T14:16:08;9.20;;;3.43;;
19251;SDS011;9760;50.944;5.304;2023-05-10T14:18:34;8.20;;;4.37;;
19251;SDS011;9760;50.944;5.304;2023-05-10T14:20:59;2.80;;;2.00;;
19251;SDS011;9760;50.944;5.304;2023-05-10T14:23:26;10.27;;;3.20;;
19251;SDS011;9760;50.944;5.304;2023-05-10T14:25:53;3.63;;;2.87;;
19251;SDS011;9760;50.944;5.304;2023-05-10T14:28:19;4.33;;;2.70;;
19251;SDS011;9760;50.944;5.304;2023-05-10T14:30:46;4.13;;;2.40;;
19251;SDS011;9760;50.944;5.304;2023-05-10T14:33:11;3.83;;;2.47;;
19251;SDS011;9760;50.944;5.304;2023-05-10T14:35:38;3.80;;;2.70;;
19251;SDS011;9760;50.944;5.304;2023-05-10T14:38:05;5.73;;;2.40;;
19251;SDS011;9760;50.944;5.304;2023-05-10T14:40:30;7.57;;;2.50;;
19251;SDS011;9760;50.944;5.304;2023-05-10T14:42:56;5.53;;;2.63;;
19251;SDS011;9760;50.944;5.304;2023-05-10T14:45:22;6.50;;;2.27;;
19251;SDS011;9760;50.944;5.304;2023-05-10T14:47:48;6.43;;;2.50;;
19251;SDS011;9760;50.944;5.304;2023-05-10T14:50:15;4.30;;;2.30;;
19251;SDS011;9760;50.944;5.304;2023-05-10T14:52:41;3.33;;;2.07;;
19251;SDS011;9760;50.944;5.304;2023-05-10T14:55:07;6.03;;;1.90;;
19251;SDS011;9760;50.944;5.304;2023-05-10T14:57:33;4.03;;;2.40;;
19251;SDS011;9760;50.944;5.304;2023-05-10T14:59:59;3.93;;;2.60;;
19251;SDS011;9760;50.944;5.304;2023-05-10T15:02:25;4.73;;;3.17;;
19251;SDS011;9760;50.944;5.304;2023-05-10T15:04:51;4.13;;;2.63;;
19251;SDS011;9760;50.944;5.304;2023-05-10T15:07:16;6.97;;;2.90;;
19251;SDS011;9760;50.944;5.304;2023-05-10T15:09:43;5.20;;;2.87;;
19251;SDS011;9760;50.944;5.304;2023-05-10T15:12:09;4.33;;;2.50;;
19251;SDS011;9760;50.944;5.304;2023-05-10T15:14:35;4.73;;;2.47;;
19251;SDS011;9760;50.944;5.304;2023-05-10T15:17:01;3.77;;;2.30;;
19251;SDS011;9760;50.944;5.304;2023-05-10T15:19:29;3.63;;;2.10;;
19251;SDS011;9760;50.944;5.304;2023-05-10T15:21:55;2.97;;;1.97;;
19251;SDS011;9760;50.944;5.304;2023-05-10T15:24:21;3.67;;;1.70;;
19251;SDS011;9760;50.944;5.304;2023-05-10T15:26:47;4.37;;;2.57;;
19251;SDS011;9760;50.944;5.304;2023-05-10T15:29:13;4.10;;;1.93;;